Pagina principale
METAR-TAF:

METAR-TAF

Aeroporti :

Grosseto, Italia

Aeroporto di Grosseto

latitudine: 42-45N, longitudine: 011-04E, altezza: 5 m

Osservazione

Il bollettino è stato emesso 50 minuti fa, alle 05:55 UTC
Vento 4 kt da nord
Temperature 19°C
Umidità 78%
Pressione 1005 hPa
Visibilità 10 km o più
nessuna nube inferiore a 1500 m e nessun cumulonembo

METAR: LIRS 260555Z 01004KT CAVOK 19/15 Q1005 RMK SKC VIS MIN 9999 WIND THR03 02004KT WIND THR21 01003KT BLU

Ora: 08:45 (06:45 UTC)

Previsione

Il bollettino è stato emesso 1 ora e 45 minuti fa, alle 05:00 UTC
Previsione valida dal 26 alle 06 UTC al 26 alle 15 UTC
Vento 5 kt da nord-est
Visibilità 10 km o più
nessuna nube inferiore a 1500 m e nessun cumulonembo
Evoluzione graduale
dal 26 alle 10 UTC al 26 alle 12 UTC
Vento 14 kt da ovest
Visibilità 10 km o più
Poco nuvoloso ad un'altezza di 2000 ft

TAF: LIRS 260500Z 2606/2615 04005KT CAVOK BECMG 2610/2612 27014KT 9999 FEW020

Osservazioni e previsioni meteorologiche di più di 4000 aeroporti (messaggi METAR e TAF).

Le stazioni disponibili sono rappresentate dai dischi gialli e rossi sulla carta.

Puntare il mouse per vedere il nome della stazione.

Clicca sopra per visualizzare le osservazioni e previsioni meteorologiche.

Per cambiare la mappa : fare clic sui pulsanti verdi con una croce nera per ingrandire, il pulsante verde con un trattino per diminuire, o sulla freccia verde per le mappe adiacenti.


METAR-TAF: